createdAt,value
2023-04-07T00:00:31.434Z,21.98
2023-04-07T00:02:59.131Z,22.65
2023-04-07T00:05:26.260Z,22.77
2023-04-07T00:07:56.786Z,24.88
2023-04-07T00:10:25.429Z,24.55
2023-04-07T00:12:52.861Z,22.30
2023-04-07T00:15:19.950Z,24.80
2023-04-07T00:17:46.939Z,22.42
2023-04-07T00:20:13.940Z,22.55
2023-04-07T00:22:41.057Z,21.85
2023-04-07T00:25:08.398Z,22.10
2023-04-07T00:27:35.506Z,22.33
2023-04-07T00:30:03.175Z,21.13
2023-04-07T00:32:30.394Z,21.35
2023-04-07T00:34:57.424Z,23.88
2023-04-07T00:37:25.760Z,20.98
2023-04-07T00:39:52.979Z,20.67
2023-04-07T00:42:20.454Z,21.15
2023-04-07T00:44:47.398Z,20.98
2023-04-07T00:47:15.567Z,21.10
2023-04-07T00:49:42.772Z,20.65
2023-04-07T00:52:12.232Z,21.70
2023-04-07T00:54:42.026Z,20.73
2023-04-07T00:57:09.350Z,21.35
2023-04-07T00:59:36.651Z,21.02
2023-04-07T01:02:23.489Z,20.40
2023-04-07T01:05:18.266Z,21.05
2023-04-07T01:08:13.327Z,21.20
2023-04-07T01:11:08.926Z,20.50
2023-04-07T01:13:52.052Z,20.90
2023-04-07T01:16:32.242Z,21.02
2023-04-07T01:19:27.686Z,21.65
2023-04-07T01:21:58.508Z,21.25
2023-04-07T01:24:43.686Z,20.55
2023-04-07T01:27:28.947Z,21.50
2023-04-07T01:29:57.076Z,22.05
2023-04-07T01:32:27.307Z,20.77
2023-04-07T01:34:55.645Z,20.73
2023-04-07T01:37:23.592Z,19.73
2023-04-07T01:39:50.789Z,20.63
2023-04-07T01:42:20.365Z,20.35
2023-04-07T01:44:48.546Z,19.40
2023-04-07T01:47:16.508Z,19.40
2023-04-07T01:49:45.514Z,19.38
2023-04-07T01:52:13.200Z,19.30
2023-04-07T01:54:41.340Z,19.73
2023-04-07T01:57:08.279Z,19.55
2023-04-07T01:59:35.415Z,19.40
2023-04-07T02:02:02.941Z,19.58
2023-04-07T02:04:39.293Z,20.17
2023-04-07T02:07:18.330Z,20.00
2023-04-07T02:09:46.918Z,19.95
2023-04-07T02:12:16.168Z,21.98
2023-04-07T02:14:44.153Z,20.15
2023-04-07T02:17:11.998Z,20.10
2023-04-07T02:19:39.690Z,20.27
2023-04-07T02:22:08.139Z,18.95
2023-04-07T02:24:35.132Z,19.98
2023-04-07T02:27:02.370Z,20.83
2023-04-07T02:29:29.472Z,20.50
2023-04-07T02:31:56.665Z,21.05
2023-04-07T02:34:23.688Z,20.45
2023-04-07T02:36:50.952Z,20.73
2023-04-07T02:39:18.072Z,21.15
2023-04-07T02:41:45.070Z,22.40
2023-04-07T02:44:12.104Z,22.45
2023-04-07T02:46:39.085Z,22.30
2023-04-07T02:49:06.029Z,28.27
2023-04-07T02:51:33.030Z,23.33
2023-04-07T02:54:00.021Z,24.73
2023-04-07T02:56:27.082Z,24.65
2023-04-07T02:58:54.043Z,25.20
2023-04-07T03:01:21.376Z,24.80
2023-04-07T03:03:48.473Z,25.50
2023-04-07T03:06:15.854Z,24.73
2023-04-07T03:08:42.831Z,25.65
2023-04-07T03:11:09.763Z,26.80
2023-04-07T03:13:36.891Z,27.08
2023-04-07T03:16:03.914Z,28.38
2023-04-07T03:18:31.092Z,31.98
2023-04-07T03:20:58.367Z,30.77
2023-04-07T03:23:25.542Z,30.73
2023-04-07T03:25:52.858Z,29.77
2023-04-07T03:28:19.887Z,37.95
2023-04-07T03:30:46.990Z,31.40
2023-04-07T03:33:14.097Z,32.42
2023-04-07T03:35:41.326Z,31.30
2023-04-07T03:38:08.338Z,32.38
2023-04-07T03:40:35.933Z,30.30
2023-04-07T03:43:02.944Z,44.22
2023-04-07T03:45:30.005Z,36.42
2023-04-07T03:47:57.145Z,33.13
2023-04-07T03:50:24.078Z,31.40
2023-04-07T03:52:51.394Z,33.05
2023-04-07T03:55:18.329Z,33.03
2023-04-07T03:57:45.598Z,34.10
2023-04-07T04:00:13.647Z,34.63
2023-04-07T04:02:40.982Z,33.97
2023-04-07T04:05:08.025Z,33.22
2023-04-07T04:07:36.061Z,31.73
2023-04-07T04:10:03.138Z,32.97
2023-04-07T04:12:30.148Z,34.20
2023-04-07T04:14:57.146Z,33.38
2023-04-07T04:17:25.691Z,33.53
2023-04-07T04:19:52.783Z,34.97
2023-04-07T04:22:19.738Z,33.17
2023-04-07T04:24:46.705Z,33.72
2023-04-07T04:27:13.621Z,37.50
2023-04-07T04:29:40.730Z,35.28
2023-04-07T04:32:07.670Z,34.72
2023-04-07T04:34:34.669Z,36.92
2023-04-07T04:37:01.761Z,34.65
2023-04-07T04:39:28.782Z,37.45
2023-04-07T04:41:56.829Z,36.15
2023-04-07T04:44:23.744Z,36.88
2023-04-07T04:46:52.506Z,40.50
2023-04-07T04:49:20.237Z,38.75
2023-04-07T04:51:47.170Z,35.60
2023-04-07T04:54:14.255Z,39.35
2023-04-07T04:56:41.328Z,37.65
2023-04-07T04:59:08.345Z,40.45
2023-04-07T05:01:35.658Z,40.13
2023-04-07T05:04:02.896Z,41.20
2023-04-07T05:06:30.118Z,45.53
2023-04-07T05:08:57.212Z,41.08
2023-04-07T05:11:24.187Z,39.80
2023-04-07T05:13:51.319Z,39.95
2023-04-07T05:16:18.450Z,36.38
2023-04-07T05:18:45.593Z,45.13
2023-04-07T05:21:12.546Z,57.80
2023-04-07T05:23:39.459Z,60.95
2023-04-07T05:26:06.639Z,44.15
2023-04-07T05:28:33.741Z,45.53
2023-04-07T05:31:01.595Z,39.47
2023-04-07T05:33:28.613Z,37.08
2023-04-07T05:35:55.686Z,40.45
2023-04-07T05:38:22.683Z,38.80
2023-04-07T05:40:49.708Z,37.05
2023-04-07T05:43:16.727Z,38.53
2023-04-07T05:45:43.734Z,37.10
2023-04-07T05:48:10.762Z,35.30
2023-04-07T05:50:37.750Z,39.03
2023-04-07T05:53:04.695Z,34.22
2023-04-07T05:55:31.921Z,34.65
2023-04-07T05:57:59.024Z,35.10
2023-04-07T06:00:26.089Z,32.42
2023-04-07T06:02:53.208Z,32.28
2023-04-07T06:05:20.750Z,32.75
2023-04-07T06:07:47.864Z,33.35
2023-04-07T06:10:15.861Z,34.55
2023-04-07T06:12:42.958Z,32.53
2023-04-07T06:15:10.260Z,33.95
2023-04-07T06:17:37.287Z,32.80
2023-04-07T06:20:04.733Z,35.53
2023-04-07T06:22:31.743Z,33.88
2023-04-07T06:24:58.757Z,34.63
2023-04-07T06:27:25.809Z,33.92
2023-04-07T06:29:52.740Z,36.85
2023-04-07T06:32:20.465Z,39.72
2023-04-07T06:34:47.486Z,33.35
2023-04-07T06:37:14.584Z,34.30
2023-04-07T06:39:41.600Z,34.40
2023-04-07T06:42:08.606Z,32.47
2023-04-07T06:44:35.706Z,34.22
2023-04-07T06:47:02.742Z,32.20
2023-04-07T06:49:29.665Z,29.98
2023-04-07T06:51:56.635Z,36.08
2023-04-07T06:54:23.622Z,32.67
2023-04-07T06:56:52.322Z,51.88
2023-04-07T06:59:20.726Z,58.95
2023-04-07T07:01:47.984Z,31.85
2023-04-07T07:04:15.640Z,31.67
2023-04-07T07:06:42.745Z,31.23
2023-04-07T07:09:09.885Z,31.33
2023-04-07T07:11:37.323Z,28.77
2023-04-07T07:14:04.259Z,31.75
2023-04-07T07:16:31.226Z,29.05
2023-04-07T07:18:58.199Z,31.13
2023-04-07T07:21:26.020Z,27.50
2023-04-07T07:23:53.028Z,28.55
2023-04-07T07:26:20.027Z,28.73
2023-04-07T07:28:47.291Z,28.17
2023-04-07T07:31:15.739Z,27.08
2023-04-07T07:33:44.252Z,27.05
2023-04-07T07:36:11.946Z,27.17
2023-04-07T07:38:39.818Z,30.30
2023-04-07T07:41:07.710Z,28.40
2023-04-07T07:43:35.068Z,27.05
2023-04-07T07:46:02.080Z,26.65
2023-04-07T07:48:29.104Z,27.73
2023-04-07T07:50:57.124Z,25.00
2023-04-07T07:53:24.319Z,25.85
2023-04-07T07:55:51.435Z,26.88
2023-04-07T07:58:18.427Z,47.53
2023-04-07T08:00:45.504Z,27.05
2023-04-07T08:03:12.701Z,27.13
2023-04-07T08:05:40.018Z,24.77
2023-04-07T08:08:07.766Z,25.60
2023-04-07T08:10:34.748Z,25.85
2023-04-07T08:13:01.772Z,28.70
2023-04-07T08:15:28.746Z,26.15
2023-04-07T08:17:56.491Z,27.63
2023-04-07T08:20:24.101Z,27.70
2023-04-07T08:22:51.223Z,26.75
2023-04-07T08:25:18.468Z,27.25
2023-04-07T08:27:45.555Z,25.63
2023-04-07T08:30:13.274Z,26.65
2023-04-07T08:32:45.107Z,25.02
2023-04-07T08:35:12.460Z,26.67
2023-04-07T08:37:41.362Z,28.27
2023-04-07T08:40:08.854Z,27.75
2023-04-07T08:42:40.853Z,25.77
2023-04-07T08:45:08.450Z,26.50
2023-04-07T08:47:36.699Z,26.90
2023-04-07T08:50:07.247Z,28.38
2023-04-07T08:52:44.593Z,25.10
2023-04-07T08:55:11.784Z,26.98
2023-04-07T08:57:39.206Z,27.23
2023-04-07T09:00:06.826Z,26.05
2023-04-07T09:02:39.045Z,25.63
2023-04-07T09:05:08.537Z,24.48
2023-04-07T09:07:37.265Z,25.00
2023-04-07T09:10:05.126Z,24.75
2023-04-07T09:12:33.275Z,24.35
2023-04-07T09:15:01.124Z,24.08
2023-04-07T09:17:29.380Z,25.30
2023-04-07T09:20:01.310Z,24.05
2023-04-07T09:22:47.674Z,23.45
2023-04-07T09:25:15.157Z,24.52
2023-04-07T09:27:53.705Z,23.92
2023-04-07T09:30:21.137Z,22.60
2023-04-07T09:32:48.402Z,23.20
2023-04-07T09:35:15.685Z,23.30
2023-04-07T09:37:42.913Z,23.73
2023-04-07T09:40:10.304Z,49.58
2023-04-07T09:42:46.384Z,22.88
2023-04-07T09:45:23.802Z,21.77
2023-04-07T09:47:58.597Z,22.02
2023-04-07T09:50:37.050Z,22.05
2023-04-07T09:53:04.923Z,23.55
2023-04-07T09:55:34.007Z,22.75
2023-04-07T09:58:01.875Z,22.58
2023-04-07T10:00:28.928Z,22.70
2023-04-07T10:02:58.017Z,23.15
2023-04-07T10:05:25.869Z,23.23
2023-04-07T10:07:53.133Z,22.77
2023-04-07T10:10:20.408Z,22.95
2023-04-07T10:12:50.057Z,24.60
2023-04-07T10:15:17.643Z,22.58
2023-04-07T10:17:49.550Z,21.35
2023-04-07T10:20:23.247Z,21.27
2023-04-07T10:22:52.730Z,23.15
2023-04-07T10:25:22.772Z,21.90
2023-04-07T10:28:05.312Z,21.38
2023-04-07T10:30:33.719Z,19.95
2023-04-07T10:33:01.360Z,20.55
2023-04-07T10:35:29.801Z,24.23
2023-04-07T10:38:26.548Z,22.30
2023-04-07T10:40:53.470Z,21.20
2023-04-07T10:43:39.978Z,22.83
2023-04-07T10:46:06.981Z,20.52
2023-04-07T10:48:34.232Z,19.63
2023-04-07T10:51:08.142Z,18.85
2023-04-07T10:53:35.390Z,18.77
2023-04-07T10:56:02.694Z,18.63
2023-04-07T10:58:31.034Z,18.10
2023-04-07T11:01:00.983Z,18.70
2023-04-07T11:03:29.489Z,19.30
2023-04-07T11:06:09.496Z,20.75
2023-04-07T11:08:45.185Z,20.05
2023-04-07T11:11:15.529Z,19.02
2023-04-07T11:13:47.561Z,18.50
2023-04-07T11:16:16.680Z,18.02
2023-04-07T11:18:44.825Z,18.77
2023-04-07T11:21:11.964Z,18.90
2023-04-07T11:23:43.135Z,19.35
2023-04-07T11:26:13.374Z,18.45
2023-04-07T11:28:52.969Z,18.70
2023-04-07T11:31:27.533Z,19.13
2023-04-07T11:33:55.616Z,18.83
2023-04-07T11:36:34.243Z,19.42
2023-04-07T11:39:02.491Z,19.02
2023-04-07T11:41:31.541Z,19.17
2023-04-07T11:44:09.258Z,19.25
2023-04-07T11:46:37.372Z,18.88
2023-04-07T11:49:16.053Z,17.85
2023-04-07T11:51:44.771Z,18.08
2023-04-07T11:54:11.898Z,18.65
2023-04-07T11:56:46.280Z,18.30
2023-04-07T11:59:24.268Z,18.48
2023-04-07T12:01:54.670Z,18.55
2023-04-07T12:04:23.354Z,19.08
2023-04-07T12:06:50.438Z,19.58
2023-04-07T12:09:30.696Z,19.13
2023-04-07T12:11:58.596Z,18.77
2023-04-07T12:14:26.499Z,19.27
2023-04-07T12:16:56.540Z,19.52
2023-04-07T12:19:24.671Z,17.73
2023-04-07T12:21:51.634Z,18.13
2023-04-07T12:24:18.654Z,17.52
2023-04-07T12:26:45.966Z,17.23
2023-04-07T12:29:13.008Z,17.00
2023-04-07T12:31:40.083Z,18.38
2023-04-07T12:34:07.642Z,17.95
2023-04-07T12:36:35.254Z,17.23
2023-04-07T12:39:02.280Z,18.17
2023-04-07T12:41:29.266Z,18.52
2023-04-07T12:43:56.245Z,18.38
2023-04-07T12:46:23.311Z,17.50
2023-04-07T12:48:50.294Z,17.77
2023-04-07T12:51:17.288Z,17.85
2023-04-07T12:53:44.329Z,17.63
2023-04-07T12:56:13.273Z,17.35
2023-04-07T12:58:41.541Z,17.75
2023-04-07T13:01:08.574Z,18.17
2023-04-07T13:03:35.971Z,18.35
2023-04-07T13:06:04.685Z,18.15
2023-04-07T13:08:31.754Z,17.95
2023-04-07T13:10:58.813Z,17.58
2023-04-07T13:13:26.000Z,18.00
2023-04-07T13:15:53.249Z,17.50
2023-04-07T13:18:20.388Z,18.10
2023-04-07T13:20:55.257Z,18.30
2023-04-07T13:23:42.694Z,18.30
2023-04-07T13:26:10.621Z,17.77
2023-04-07T13:28:38.130Z,18.10
2023-04-07T13:31:05.167Z,17.80
2023-04-07T13:33:32.166Z,18.38
2023-04-07T13:35:59.146Z,18.33
2023-04-07T13:38:26.710Z,17.98
2023-04-07T13:40:53.694Z,18.30
2023-04-07T13:43:20.668Z,17.42
2023-04-07T13:45:48.791Z,17.90
2023-04-07T13:48:15.989Z,18.40
2023-04-07T13:50:42.917Z,18.73
2023-04-07T13:53:09.970Z,17.55
2023-04-07T13:55:37.039Z,17.65
2023-04-07T13:58:04.036Z,18.45
2023-04-07T14:00:31.034Z,17.95
2023-04-07T14:02:58.408Z,18.55
2023-04-07T14:05:25.618Z,18.58
2023-04-07T14:07:52.723Z,18.60
2023-04-07T14:10:19.724Z,18.02
2023-04-07T14:12:47.184Z,18.90
2023-04-07T14:15:14.880Z,18.50
2023-04-07T14:17:42.995Z,18.10
2023-04-07T14:20:10.350Z,18.27
2023-04-07T14:22:37.286Z,18.75
2023-04-07T14:25:04.842Z,18.60
2023-04-07T14:27:31.845Z,18.42
2023-04-07T14:29:59.716Z,18.23
2023-04-07T14:32:29.762Z,18.35
2023-04-07T14:34:59.316Z,18.30
2023-04-07T14:37:28.628Z,18.85
2023-04-07T14:42:26.045Z,18.35
2023-04-07T14:44:53.274Z,18.10
2023-04-07T14:47:20.392Z,17.83
2023-04-07T14:49:47.556Z,18.50
2023-04-07T14:52:14.777Z,18.27
2023-04-07T14:54:41.729Z,17.98
2023-04-07T14:57:08.750Z,17.65
2023-04-07T14:59:35.977Z,17.25
2023-04-07T15:02:02.969Z,17.05
2023-04-07T15:04:30.046Z,17.25
2023-04-07T15:06:57.341Z,18.55
2023-04-07T15:09:24.306Z,18.13
2023-04-07T15:11:51.311Z,18.08
2023-04-07T15:14:18.250Z,18.10
2023-04-07T15:16:47.395Z,17.13
2023-04-07T15:19:14.326Z,17.70
2023-04-07T15:21:41.428Z,18.65
2023-04-07T15:24:08.541Z,19.60
2023-04-07T15:26:35.462Z,19.17
2023-04-07T15:29:02.410Z,18.35
2023-04-07T15:31:30.096Z,18.50
2023-04-07T15:33:57.172Z,18.75
2023-04-07T15:36:24.099Z,18.85
2023-04-07T15:38:51.110Z,19.73
2023-04-07T15:41:18.113Z,19.13
2023-04-07T15:43:45.156Z,18.67
2023-04-07T15:46:12.209Z,19.67
2023-04-07T15:48:39.199Z,19.17
2023-04-07T15:51:06.187Z,18.42
2023-04-07T15:53:33.242Z,18.90
2023-04-07T15:56:00.271Z,18.40
2023-04-07T15:58:27.327Z,18.13
2023-04-07T16:00:54.625Z,17.92
2023-04-07T16:03:21.749Z,17.35
2023-04-07T16:05:48.898Z,17.08
2023-04-07T16:08:15.871Z,17.67
2023-04-07T16:10:43.001Z,17.73
2023-04-07T16:13:10.655Z,17.20
2023-04-07T16:15:40.673Z,16.88
2023-04-07T16:18:11.620Z,17.23
2023-04-07T16:20:38.787Z,17.85
2023-04-07T16:23:05.842Z,17.38
2023-04-07T16:25:32.847Z,17.67
2023-04-07T16:27:59.854Z,17.27
2023-04-07T16:30:26.928Z,17.90
2023-04-07T16:32:54.027Z,18.15
2023-04-07T16:35:21.404Z,17.88
2023-04-07T16:37:50.155Z,18.00
2023-04-07T16:40:17.330Z,18.00
2023-04-07T16:42:44.330Z,17.67
2023-04-07T16:45:11.570Z,18.13
2023-04-07T16:47:38.879Z,18.50
2023-04-07T16:50:06.289Z,18.30
2023-04-07T16:52:33.318Z,18.20
2023-04-07T16:55:01.281Z,18.70
2023-04-07T16:57:28.508Z,19.02
2023-04-07T16:59:55.526Z,18.77
2023-04-07T17:02:22.735Z,19.60
2023-04-07T17:04:49.924Z,25.23
2023-04-07T17:07:17.098Z,24.15
2023-04-07T17:09:44.070Z,21.83
2023-04-07T17:12:11.194Z,21.75
2023-04-07T17:14:38.216Z,21.88
2023-04-07T17:17:05.283Z,20.48
2023-04-07T17:19:32.322Z,19.42
2023-04-07T17:21:59.305Z,19.33
2023-04-07T17:24:26.426Z,19.58
2023-04-07T17:26:53.631Z,18.80
2023-04-07T17:29:21.451Z,18.15
2023-04-07T17:31:50.001Z,18.40
2023-04-07T17:34:17.255Z,18.70
2023-04-07T17:36:44.211Z,18.40
2023-04-07T17:39:11.367Z,19.35
2023-04-07T17:41:38.674Z,19.08
2023-04-07T17:44:05.942Z,19.35
2023-04-07T17:46:33.281Z,20.13
2023-04-07T17:49:01.648Z,20.60
2023-04-07T17:51:29.043Z,20.33
2023-04-07T17:53:56.821Z,21.73
2023-04-07T17:56:24.618Z,22.80
2023-04-07T17:58:51.667Z,22.27
2023-04-07T18:01:18.751Z,21.55
2023-04-07T18:03:45.922Z,21.75
2023-04-07T18:06:17.243Z,21.52
2023-04-07T18:08:48.303Z,22.27
2023-04-07T18:11:16.350Z,21.23
2023-04-07T18:13:43.394Z,21.55
2023-04-07T18:16:12.064Z,26.15
2023-04-07T18:18:39.163Z,24.00
2023-04-07T18:21:07.266Z,22.88
2023-04-07T18:23:35.057Z,22.45
2023-04-07T18:26:06.711Z,23.02
2023-04-07T18:28:34.179Z,21.90
2023-04-07T18:31:04.118Z,22.10
2023-04-07T18:33:33.156Z,23.13
2023-04-07T18:36:02.900Z,24.60
2023-04-07T18:38:30.088Z,23.15
2023-04-07T18:40:57.165Z,24.67
2023-04-07T18:43:24.182Z,23.63
2023-04-07T18:45:52.869Z,24.80
2023-04-07T18:48:20.364Z,27.25
2023-04-07T18:50:52.231Z,23.60
2023-04-07T18:53:24.061Z,22.85
2023-04-07T18:55:51.660Z,23.73
2023-04-07T18:58:19.458Z,22.73
2023-04-07T19:00:47.326Z,21.40
2023-04-07T19:03:14.500Z,21.20
2023-04-07T19:05:42.293Z,21.85
2023-04-07T19:08:09.949Z,21.52
2023-04-07T19:10:37.036Z,21.90
2023-04-07T19:13:04.611Z,20.92
2023-04-07T19:15:40.824Z,20.77
2023-04-07T19:18:10.485Z,21.60
2023-04-07T19:20:37.553Z,23.38
2023-04-07T19:23:04.550Z,26.15
2023-04-07T19:25:31.703Z,24.88
2023-04-07T19:27:59.084Z,25.80
2023-04-07T19:30:26.218Z,26.90
2023-04-07T19:32:53.521Z,27.95
2023-04-07T19:35:20.672Z,28.08
2023-04-07T19:37:48.251Z,28.48
2023-04-07T19:40:15.667Z,29.13
2023-04-07T19:42:42.854Z,27.75
2023-04-07T19:45:10.480Z,23.95
2023-04-07T19:47:38.695Z,23.92
2023-04-07T19:50:06.910Z,24.02
2023-04-07T19:52:34.073Z,23.23
2023-04-07T19:55:03.920Z,22.35
2023-04-07T19:57:31.596Z,21.92
2023-04-07T19:59:58.650Z,22.92
2023-04-07T20:02:26.001Z,22.50
2023-04-07T20:04:53.961Z,21.85
2023-04-07T20:07:20.956Z,22.10
2023-04-07T20:09:48.043Z,22.25
2023-04-07T20:12:15.169Z,21.77
2023-04-07T20:14:42.166Z,21.88
2023-04-07T20:17:09.515Z,24.65
2023-04-07T20:19:36.764Z,22.15
2023-04-07T20:22:04.672Z,22.20
2023-04-07T20:24:31.770Z,22.77
2023-04-07T20:26:58.724Z,23.70
2023-04-07T20:29:25.745Z,28.20
2023-04-07T20:31:52.760Z,24.55
2023-04-07T20:34:19.847Z,23.75
2023-04-07T20:36:48.833Z,23.88
2023-04-07T20:39:16.590Z,28.50
2023-04-07T20:41:45.268Z,24.27
2023-04-07T20:44:12.433Z,23.35
2023-04-07T20:46:39.529Z,22.70
2023-04-07T20:49:08.114Z,22.73
2023-04-07T20:51:38.177Z,22.30
2023-04-07T20:54:05.266Z,22.20
2023-04-07T20:56:32.319Z,22.50
2023-04-07T20:58:59.269Z,22.30
2023-04-07T21:01:26.555Z,21.52
2023-04-07T21:03:54.277Z,23.67
2023-04-07T21:06:21.677Z,22.50
2023-04-07T21:08:49.035Z,22.55
2023-04-07T21:11:16.385Z,23.50
2023-04-07T21:13:43.394Z,22.90
2023-04-07T21:16:11.157Z,23.98
2023-04-07T21:18:39.026Z,22.63
2023-04-07T21:21:08.249Z,23.02
2023-04-07T21:23:35.484Z,22.90
2023-04-07T21:26:03.373Z,23.00
2023-04-07T21:28:30.663Z,23.33
2023-04-07T21:30:58.274Z,23.65
2023-04-07T21:33:25.529Z,25.30
2023-04-07T21:35:52.972Z,24.10
2023-04-07T21:38:20.011Z,24.17
2023-04-07T21:40:47.067Z,24.80
2023-04-07T21:43:14.037Z,25.17
2023-04-07T21:45:41.098Z,26.67
2023-04-07T21:48:08.172Z,23.75
2023-04-07T21:50:36.470Z,25.20
2023-04-07T21:53:03.605Z,23.85
2023-04-07T21:55:30.926Z,25.35
2023-04-07T21:57:58.310Z,25.08
2023-04-07T22:00:25.868Z,26.65
2023-04-07T22:02:53.277Z,26.83
2023-04-07T22:05:21.200Z,25.70
2023-04-07T22:07:48.601Z,26.83
2023-04-07T22:10:15.823Z,27.75
2023-04-07T22:12:42.891Z,28.50
2023-04-07T22:15:12.817Z,26.05
2023-04-07T22:17:40.374Z,28.50
2023-04-07T22:20:11.424Z,27.17
2023-04-07T22:22:38.631Z,25.23
2023-04-07T22:25:06.776Z,25.17
2023-04-07T22:27:33.813Z,25.73
2023-04-07T22:30:01.047Z,25.95
2023-04-07T22:32:28.042Z,26.38
2023-04-07T22:34:55.105Z,26.48
2023-04-07T22:37:22.133Z,27.02
2023-04-07T22:39:50.515Z,29.35
2023-04-07T22:42:17.530Z,30.35
2023-04-07T22:44:44.590Z,30.38
2023-04-07T22:47:11.648Z,29.83
2023-04-07T22:49:38.728Z,28.65
2023-04-07T22:52:05.707Z,29.45
2023-04-07T22:54:32.719Z,28.33
2023-04-07T22:56:59.667Z,30.38
2023-04-07T22:59:26.662Z,30.60
2023-04-07T23:01:55.623Z,27.85
2023-04-07T23:04:24.683Z,29.73
2023-04-07T23:06:51.654Z,30.40
2023-04-07T23:09:18.790Z,32.13
2023-04-07T23:11:49.009Z,35.80
2023-04-07T23:14:16.294Z,34.65
2023-04-07T23:16:43.276Z,33.88
2023-04-07T23:19:15.948Z,38.03
2023-04-07T23:21:43.304Z,35.10
2023-04-07T23:24:10.486Z,36.85
2023-04-07T23:26:37.599Z,38.00
2023-04-07T23:29:04.700Z,42.95
2023-04-07T23:31:31.691Z,41.45
2023-04-07T23:33:59.822Z,38.53
2023-04-07T23:36:27.366Z,44.88
2023-04-07T23:38:57.492Z,42.60
2023-04-07T23:41:24.782Z,41.55
2023-04-07T23:43:51.729Z,46.25
2023-04-07T23:46:18.751Z,45.25
2023-04-07T23:48:45.722Z,44.60
2023-04-07T23:51:12.997Z,45.20
2023-04-07T23:53:40.083Z,44.17
2023-04-07T23:56:07.278Z,47.58
2023-04-07T23:58:34.273Z,43.35
